Time;durP1;ratioP1;P1;durP2;ratioP2;P2;SDS_P1;SDS_P2;PMS_P1;PMS_P2;Temp;Humidity;BMP_temperature;BMP_pressure;BME280_temperature;BME280_humidity;BME280_pressure;Samples;Min_cycle;Max_cycle;Signal;HPM_P1;HPM_P2
2023/12/19 00:01:07;;;;;;;18.90;13.30;;;;;;;3.67;82.03;99594.86;226505;1272;22549;-74
2023/12/19 00:06:10;;;;;;;16.20;11.80;;;;;;;3.64;82.24;99587.80;226430;1275;22578;-74
2023/12/19 00:11:12;;;;;;;15.70;11.20;;;;;;;3.61;82.07;99580.75;226496;1275;24248;-75
2023/12/19 00:16:14;;;;;;;18.00;12.50;;;;;;;3.57;82.32;99568.51;226551;1272;22541;-75
2023/12/19 00:21:16;;;;;;;19.20;12.00;;;;;;;3.55;82.37;99575.48;226520;1272;22691;-73
2023/12/19 00:26:19;;;;;;;17.60;11.80;;;;;;;3.56;82.35;99572.77;226381;1274;22548;-73
2023/12/19 00:31:22;;;;;;;16.50;11.30;;;;;;;3.58;82.45;99577.13;226541;1274;22590;-74
2023/12/19 00:36:24;;;;;;;18.10;11.60;;;;;;;3.62;82.15;99574.52;226468;1273;24948;-75
2023/12/19 00:41:26;;;;;;;16.70;11.30;;;;;;;3.66;82.21;99573.55;226534;1270;22559;-74
2023/12/19 00:46:29;;;;;;;15.80;10.60;;;;;;;3.68;82.37;99577.53;226539;1271;22812;-73
2023/12/19 00:51:31;;;;;;;17.40;11.30;;;;;;;3.72;82.39;99574.78;226533;1272;22562;-74
2023/12/19 00:56:33;;;;;;;17.50;10.80;;;;;;;3.77;82.20;99577.16;226589;1272;22546;-74
2023/12/19 01:01:35;;;;;;;13.60;9.60;;;;;;;3.80;81.99;99575.32;226600;1272;22575;-73
2023/12/19 01:06:37;;;;;;;17.20;10.10;;;;;;;3.84;82.05;99564.48;226586;1272;22548;-73
2023/12/19 01:11:40;;;;;;;16.30;9.60;;;;;;;3.91;81.89;99563.29;226451;1274;24244;-73
2023/12/19 01:16:42;;;;;;;17.10;10.20;;;;;;;3.97;81.84;99551.10;226283;1274;22541;-73
2023/12/19 01:21:44;;;;;;;15.00;10.10;;;;;;;4.02;81.47;99542.12;226547;1272;22542;-74
2023/12/19 01:26:49;;;;;;;14.00;9.20;;;;;;;4.07;81.26;99547.14;226494;1275;22547;-74
2023/12/19 01:31:51;;;;;;;15.20;10.00;;;;;;;4.12;81.03;99529.84;226434;1274;22574;-72
2023/12/19 01:36:54;;;;;;;12.70;9.20;;;;;;;4.15;80.92;99517.50;226488;1266;22555;-73
2023/12/19 01:41:59;;;;;;;14.00;9.40;;;;;;;4.18;80.78;99515.34;226544;1272;23304;-73
2023/12/19 01:47:01;;;;;;;13.40;9.20;;;;;;;4.21;80.87;99517.02;226431;1275;22536;-72
2023/12/19 01:52:03;;;;;;;13.50;9.10;;;;;;;4.24;80.72;99528.91;226465;1274;24199;-74
2023/12/19 01:57:06;;;;;;;15.30;9.00;;;;;;;4.28;80.68;99523.39;226564;1272;22578;-73
2023/12/19 02:02:08;;;;;;;13.60;8.70;;;;;;;4.31;80.30;99521.23;226611;1272;22548;-73
2023/12/19 02:07:10;;;;;;;12.50;8.10;;;;;;;4.33;80.25;99523.16;226480;1272;22522;-73
2023/12/19 02:12:13;;;;;;;13.10;9.00;;;;;;;4.35;80.34;99511.78;226421;1275;22536;-74
2023/12/19 02:17:16;;;;;;;13.30;9.00;;;;;;;4.36;80.33;99501.57;226574;1272;22545;-73
2023/12/19 02:22:19;;;;;;;11.60;8.00;;;;;;;4.38;80.33;99510.84;226555;1272;22541;-73
2023/12/19 02:27:23;;;;;;;11.70;7.50;;;;;;;4.40;79.75;99513.44;226568;1272;22547;-74
2023/12/19 02:32:25;;;;;;;13.30;8.80;;;;;;;4.42;79.67;99504.55;226613;1272;22543;-73
2023/12/19 02:37:28;;;;;;;14.20;8.00;;;;;;;4.45;79.43;99513.88;226585;1272;22548;-73
2023/12/19 02:42:30;;;;;;;15.00;9.00;;;;;;;4.49;79.65;99490.66;226605;1272;24850;-74
2023/12/19 02:47:32;;;;;;;22.10;9.60;;;;;;;4.51;79.61;99474.29;226612;1273;22733;-73
2023/12/19 02:52:34;;;;;;;13.40;8.50;;;;;;;4.54;79.52;99471.27;226470;1273;22556;-73
2023/12/19 02:57:38;;;;;;;11.20;7.80;;;;;;;4.58;79.27;99468.95;226516;1254;22554;-75
2023/12/19 03:02:43;;;;;;;10.50;7.30;;;;;;;4.63;79.01;99457.68;226573;1272;22543;-75
2023/12/19 03:07:46;;;;;;;9.80;6.80;;;;;;;4.68;79.05;99446.85;226605;1272;22552;-75
2023/12/19 03:12:48;;;;;;;10.10;6.90;;;;;;;4.72;78.92;99433.61;226481;1275;22564;-75
2023/12/19 03:17:50;;;;;;;9.10;6.80;;;;;;;4.74;78.71;99422.08;226364;1275;22544;-75
2023/12/19 03:22:52;;;;;;;8.40;7.10;;;;;;;4.76;78.44;99422.73;226415;1274;22538;-71
2023/12/19 03:27:54;;;;;;;9.20;6.60;;;;;;;4.79;78.37;99418.11;226379;1268;22556;-72
2023/12/19 03:32:56;;;;;;;10.20;6.40;;;;;;;4.80;78.40;99426.38;226456;1273;22619;-73
2023/12/19 03:37:59;;;;;;;9.60;6.30;;;;;;;4.82;78.21;99451.89;226610;1272;22533;-73
2023/12/19 03:43:01;;;;;;;8.80;6.00;;;;;;;4.82;77.91;99437.90;226548;1272;23009;-72
2023/12/19 03:48:04;;;;;;;8.80;6.60;;;;;;;4.83;78.10;99446.91;226612;1275;22557;-72
2023/12/19 03:53:06;;;;;;;8.40;5.90;;;;;;;4.84;78.07;99451.90;226543;1273;22549;-74
2023/12/19 03:58:08;;;;;;;8.60;6.30;;;;;;;4.84;77.83;99438.98;226285;1275;22554;-73
2023/12/19 04:03:10;;;;;;;9.70;6.50;;;;;;;4.83;77.64;99430.87;226583;1272;22661;-73
2023/12/19 04:08:12;;;;;;;10.80;6.80;;;;;;;4.82;77.78;99427.48;226569;1274;22534;-73
2023/12/19 04:13:14;;;;;;;9.40;6.70;;;;;;;4.80;77.82;99429.67;226432;1274;24304;-73
2023/12/19 04:18:17;;;;;;;21.30;12.00;;;;;;;4.79;77.58;99429.64;226562;1273;25395;-73
2023/12/19 04:23:19;;;;;;;10.50;7.20;;;;;;;4.78;77.26;99421.30;226343;1274;22651;-73
2023/12/19 04:28:21;;;;;;;8.10;6.10;;;;;;;4.77;77.60;99415.29;226608;1272;24934;-74
2023/12/19 04:33:23;;;;;;;9.90;6.40;;;;;;;4.76;77.38;99410.13;226531;1275;22555;-74
2023/12/19 04:38:25;;;;;;;11.90;7.40;;;;;;;4.76;77.31;99406.16;226628;1275;22573;-73
2023/12/19 04:43:27;;;;;;;10.20;6.00;;;;;;;4.75;77.32;99408.67;226536;1275;22548;-72
2023/12/19 04:48:31;;;;;;;13.50;7.60;;;;;;;4.73;77.15;99416.78;226430;1273;22647;-73
2023/12/19 04:53:34;;;;;;;10.50;6.80;;;;;;;4.67;77.28;99417.45;226467;1275;22544;-73
2023/12/19 04:58:36;;;;;;;10.70;6.60;;;;;;;4.60;77.27;99424.00;226599;1273;22544;-74
2023/12/19 05:03:39;;;;;;;9.90;6.30;;;;;;;4.53;77.12;99438.39;226590;1275;22552;-74
2023/12/19 05:08:42;;;;;;;8.10;6.20;;;;;;;4.43;77.16;99440.95;226422;1273;22570;-74
2023/12/19 05:13:44;;;;;;;8.90;6.00;;;;;;;4.33;77.09;99448.52;226432;1273;22531;-73
2023/12/19 05:18:46;;;;;;;9.10;5.90;;;;;;;4.21;77.25;99442.36;226616;1272;22657;-73
2023/12/19 05:23:48;;;;;;;11.90;6.90;;;;;;;4.08;77.21;99430.05;226432;1274;22552;-73
2023/12/19 05:28:50;;;;;;;11.20;6.60;;;;;;;3.98;77.35;99436.56;226579;1273;22589;-73
2023/12/19 05:33:54;;;;;;;12.10;6.80;;;;;;;3.88;77.55;99443.91;226549;1273;26204;-73
2023/12/19 05:38:56;;;;;;;12.60;7.10;;;;;;;3.81;77.71;99439.65;226596;1275;25303;-72
2023/12/19 05:43:59;;;;;;;12.30;7.30;;;;;;;3.77;77.58;99439.36;226578;1261;22586;-74
2023/12/19 05:49:03;;;;;;;11.40;7.00;;;;;;;3.71;77.86;99432.70;226551;1274;22552;-73
2023/12/19 05:54:06;;;;;;;11.50;7.20;;;;;;;3.69;77.74;99433.77;226566;1273;22555;-73
2023/12/19 05:59:08;;;;;;;11.70;6.60;;;;;;;3.70;77.68;99417.96;226389;1272;22547;-73
2023/12/19 06:04:10;;;;;;;13.00;7.10;;;;;;;3.75;77.92;99394.92;226622;1273;22571;-74
2023/12/19 06:09:13;;;;;;;13.80;7.10;;;;;;;3.85;77.53;99376.27;226627;1273;22556;-73
2023/12/19 06:14:15;;;;;;;12.20;6.60;;;;;;;3.99;77.80;99365.52;226579;1271;22550;-73
2023/12/19 06:19:17;;;;;;;10.70;6.50;;;;;;;4.11;77.48;99361.48;226559;1275;22533;-74
2023/12/19 06:24:20;;;;;;;10.50;6.50;;;;;;;4.25;77.10;99363.38;226221;1275;22550;-74
2023/12/19 06:29:22;;;;;;;10.00;6.00;;;;;;;4.42;76.96;99365.40;226430;1274;22598;-73
2023/12/19 06:34:28;;;;;;;9.00;6.00;;;;;;;4.56;76.66;99381.41;226594;1272;22554;-74
2023/12/19 06:39:30;;;;;;;9.00;5.70;;;;;;;4.68;76.67;99385.04;226713;1273;22591;-73
2023/12/19 06:44:32;;;;;;;10.50;6.10;;;;;;;4.76;76.36;99386.48;226347;1260;22734;-73
2023/12/19 06:49:34;;;;;;;8.30;5.30;;;;;;;4.77;76.19;99386.49;226343;1251;24259;-73
2023/12/19 06:54:40;;;;;;;9.70;6.20;;;;;;;4.75;75.70;99397.84;226332;1270;24322;-73
2023/12/19 06:59:42;;;;;;;9.50;5.60;;;;;;;4.75;75.72;99402.75;225903;1260;22548;-76
2023/12/19 07:04:46;;;;;;;10.90;5.50;;;;;;;4.76;75.82;99397.73;225718;1251;23127;-75
2023/12/19 07:09:48;;;;;;;9.60;5.50;;;;;;;4.78;75.58;99389.20;225830;1251;22494;-74
2023/12/19 07:14:50;;;;;;;10.80;5.60;;;;;;;4.78;75.61;99386.38;225924;1251;23928;-74
2023/12/19 07:19:52;;;;;;;8.70;5.50;;;;;;;4.78;75.43;99377.65;225900;1254;22556;-74
2023/12/19 07:24:55;;;;;;;6.20;4.40;;;;;;;4.81;75.24;99377.77;226122;1254;24568;-71
2023/12/19 07:29:58;;;;;;;9.30;6.30;;;;;;;4.85;75.24;99363.29;226198;1253;22548;-72
2023/12/19 07:35:00;;;;;;;11.50;6.20;;;;;;;4.91;75.37;99373.59;226081;1251;22610;-73
2023/12/19 07:40:05;;;;;;;12.50;6.60;;;;;;;5.00;75.23;99373.15;225815;1253;22538;-74
2023/12/19 07:45:08;;;;;;;12.70;7.30;;;;;;;5.13;75.01;99374.23;225906;1274;22546;-73
2023/12/19 07:50:13;;;;;;;11.40;6.00;;;;;;;5.29;74.90;99372.58;225994;1260;22525;-75
2023/12/19 07:55:15;;;;;;;14.00;7.00;;;;;;;5.46;74.64;99371.52;226149;1257;22552;-74
2023/12/19 08:00:17;;;;;;;12.00;6.10;;;;;;;5.64;74.41;99362.63;226190;1251;23043;-72
2023/12/19 08:05:19;;;;;;;12.90;5.80;;;;;;;5.80;73.98;99356.48;225995;1253;22563;-72
2023/12/19 08:10:22;;;;;;;17.00;7.90;;;;;;;5.95;73.94;99362.92;226058;1254;22538;-72
2023/12/19 08:15:23;;;;;;;10.70;5.50;;;;;;;6.30;73.69;99356.77;226153;1263;22556;-73
2023/12/19 08:20:25;;;;;;;8.90;5.30;;;;;;;6.47;72.74;99355.21;226245;1251;22939;-75
2023/12/19 08:25:28;;;;;;;9.50;5.10;;;;;;;6.54;72.34;99350.27;226134;1254;22657;-72
2023/12/19 08:30:30;;;;;;;10.30;5.20;;;;;;;6.67;72.45;99347.21;225985;1251;24273;-72
2023/12/19 08:35:32;;;;;;;8.50;5.00;;;;;;;6.83;72.27;99343.27;226199;1263;22627;-75
2023/12/19 08:40:34;;;;;;;8.10;5.00;;;;;;;6.99;71.66;99325.38;225852;1251;22548;-71
2023/12/19 08:45:37;;;;;;;8.60;4.70;;;;;;;7.15;70.53;99317.30;225899;1251;22567;-72
2023/12/19 08:50:39;;;;;;;8.30;4.50;;;;;;;7.32;70.64;99312.42;226173;1253;25380;-74
2023/12/19 08:55:44;;;;;;;7.20;4.70;;;;;;;7.49;69.99;99303.20;225940;1258;22548;-73
2023/12/19 09:00:50;;;;;;;6.40;4.00;;;;;;;7.60;69.32;99297.86;225999;1259;22991;-73
2023/12/19 09:05:55;;;;;;;7.80;4.60;;;;;;;7.59;69.30;99290.08;226219;1272;22541;-73
2023/12/19 09:10:57;;;;;;;9.20;6.10;;;;;;;7.51;68.55;99293.16;226084;1259;22548;-75
2023/12/19 09:16:04;;;;;;;6.30;4.20;;;;;;;7.40;68.71;99293.85;226048;1263;22557;-72
2023/12/19 09:21:07;;;;;;;7.00;4.70;;;;;;;7.33;68.51;99293.60;225894;1266;24633;-74
2023/12/19 09:26:09;;;;;;;10.60;5.10;;;;;;;7.29;68.56;99280.27;226029;1253;23297;-74
2023/12/19 09:31:11;;;;;;;8.90;5.40;;;;;;;7.27;69.09;99267.59;226095;1260;22978;-75
2023/12/19 09:36:21;;;;;;;7.10;4.50;;;;;;;7.25;68.92;99249.77;225998;1266;25152;-74
2023/12/19 09:41:24;;;;;;;9.60;5.00;;;;;;;7.32;69.18;99254.20;225985;1250;22919;-74
2023/12/19 09:46:26;;;;;;;8.00;4.20;;;;;;;7.40;68.69;99252.06;225978;1256;22569;-75
2023/12/19 09:51:35;;;;;;;8.90;5.30;;;;;;;7.47;68.52;99252.16;226182;1253;22544;-74
2023/12/19 09:56:37;;;;;;;7.30;4.70;;;;;;;7.63;68.44;99241.95;226230;1250;23570;-75
2023/12/19 10:01:39;;;;;;;9.60;4.40;;;;;;;7.83;68.39;99229.65;226149;1253;22547;-74
2023/12/19 10:06:42;;;;;;;7.30;5.10;;;;;;;8.04;68.09;99213.80;226230;1250;22547;-72
2023/12/19 10:12:15;;;;;;;8.10;4.70;;;;;;;8.23;67.97;99202.32;226964;1267;22557;-74
2023/12/19 10:17:17;;;;;;;6.00;4.20;;;;;;;8.42;67.77;99189.93;226234;1253;22571;-72
2023/12/19 10:22:20;;;;;;;7.70;4.40;;;;;;;8.55;67.36;99178.22;226058;1250;24279;-73
2023/12/19 10:27:22;;;;;;;6.20;4.00;;;;;;;8.63;67.27;99174.81;226153;1254;22561;-74
2023/12/19 10:32:25;;;;;;;5.30;4.00;;;;;;;8.79;67.20;99160.64;226256;1267;22536;-76
2023/12/19 10:37:27;;;;;;;8.20;4.10;;;;;;;8.95;65.70;99144.18;226075;1267;22573;-75
2023/12/19 10:42:54;;;;;;;5.50;3.80;;;;;;;9.10;65.76;99127.33;226192;1266;22536;-74
2023/12/19 10:47:57;;;;;;;7.60;4.00;;;;;;;9.28;65.45;99116.03;226291;1253;25382;-73
2023/12/19 10:53:03;;;;;;;6.50;3.60;;;;;;;9.42;65.07;99109.21;226203;1254;22689;-75
2023/12/19 10:58:06;;;;;;;6.30;3.50;;;;;;;9.55;64.71;99100.34;226174;1250;22585;-76
2023/12/19 11:03:26;;;;;;;5.50;3.40;;;;;;;9.58;63.91;99089.41;226260;1256;23294;-74
2023/12/19 11:08:29;;;;;;;5.00;3.50;;;;;;;9.53;63.78;99075.91;226062;1256;22545;-78
2023/12/19 11:13:33;;;;;;;5.70;3.80;;;;;;;9.46;63.98;99076.40;226181;1256;22541;-76
2023/12/19 11:18:45;;;;;;;7.40;3.90;;;;;;;9.32;63.70;99067.06;226466;1266;22553;-74
2023/12/19 11:24:01;;;;;;;6.10;3.90;;;;;;;9.14;63.65;99061.48;225936;1267;149861;-76
2023/12/19 11:29:03;;;;;;;7.80;4.20;;;;;;;9.02;63.75;99056.56;227024;1260;23622;-77
2023/12/19 11:34:23;;;;;;;6.30;3.80;;;;;;;8.95;63.51;99057.11;226065;1267;22545;-77
2023/12/19 11:39:33;;;;;;;5.20;3.50;;;;;;;8.91;63.46;99056.25;225825;1259;22659;-79
2023/12/19 11:44:36;;;;;;;5.60;3.50;;;;;;;8.87;63.25;99043.72;226546;1269;22558;-78
2023/12/19 11:49:38;;;;;;;8.20;4.70;;;;;;;8.82;63.51;99036.41;226114;1259;22540;-77
2023/12/19 11:54:41;;;;;;;7.10;3.70;;;;;;;8.76;63.66;99024.13;225873;1253;22563;-77
2023/12/19 11:59:48;;;;;;;5.80;3.70;;;;;;;8.72;63.14;99012.00;225901;1253;22546;-79
2023/12/19 12:05:08;;;;;;;8.10;4.10;;;;;;;8.72;63.46;99006.37;227425;1257;22607;-77
2023/12/19 12:10:18;;;;;;;8.30;4.10;;;;;;;8.83;63.29;98994.59;226056;1255;22566;-80
2023/12/19 12:15:24;;;;;;;5.90;4.00;;;;;;;9.08;63.45;98988.77;225876;1256;22536;-79
2023/12/19 12:20:26;;;;;;;7.20;4.10;;;;;;;9.38;63.29;98977.17;226015;1253;22645;-80
2023/12/19 12:25:30;;;;;;;6.20;3.80;;;;;;;9.64;62.43;98963.17;226062;1266;22556;-79
2023/12/19 12:30:33;;;;;;;5.80;3.50;;;;;;;9.82;61.74;98959.13;226090;1255;22663;-77
2023/12/19 12:35:38;;;;;;;6.10;3.90;;;;;;;9.91;60.96;98947.63;225885;1262;23834;-79
2023/12/19 12:40:54;;;;;;;6.40;3.20;;;;;;;10.06;60.83;98942.60;226091;1256;25275;-77
2023/12/19 12:46:09;;;;;;;6.70;3.60;;;;;;;10.22;59.15;98939.55;226118;1250;24182;-79
2023/12/19 12:51:16;;;;;;;5.90;3.10;;;;;;;10.30;59.27;98933.36;225936;1253;22570;-79
2023/12/19 12:56:18;;;;;;;5.00;3.20;;;;;;;10.21;58.54;98920.35;225917;1253;22541;-78
2023/12/19 13:01:21;;;;;;;4.60;3.30;;;;;;;10.03;57.89;98909.77;225745;1267;22547;-78
2023/12/19 13:06:24;;;;;;;5.40;3.20;;;;;;;9.82;57.96;98907.40;226047;1255;22470;-79
2023/12/19 13:11:26;;;;;;;7.50;3.40;;;;;;;9.67;58.15;98903.16;226074;1262;22550;-79
2023/12/19 13:16:30;;;;;;;5.70;3.60;;;;;;;9.56;58.57;98896.38;226128;1274;22676;-78
2023/12/19 13:21:32;;;;;;;7.00;3.70;;;;;;;9.44;58.15;98895.13;226255;1253;25320;-78
2023/12/19 13:26:34;;;;;;;6.80;4.00;;;;;;;9.36;58.19;98880.91;225975;1267;22594;-77
2023/12/19 13:31:37;;;;;;;6.10;3.60;;;;;;;9.37;58.36;98870.98;225682;1266;22704;-77
2023/12/19 13:36:43;;;;;;;4.50;3.60;;;;;;;9.35;57.82;98870.67;225764;1259;22536;-76
2023/12/19 13:41:45;;;;;;;9.00;3.50;;;;;;;9.30;58.37;98867.92;226020;1267;25387;-77
2023/12/19 13:46:48;;;;;;;6.80;4.20;;;;;;;9.22;58.06;98868.17;226061;1256;22702;-75
2023/12/19 13:51:50;;;;;;;8.50;4.50;;;;;;;9.07;58.47;98865.13;225988;1256;22545;-76
2023/12/19 13:56:52;;;;;;;7.20;3.80;;;;;;;8.97;59.08;98863.23;226149;1267;26179;-77
2023/12/19 14:01:54;;;;;;;5.40;3.80;;;;;;;8.82;59.53;98849.80;225889;1263;22558;-77
2023/12/19 14:06:56;;;;;;;6.60;4.00;;;;;;;8.64;59.06;98835.03;226044;1251;26183;-75
2023/12/19 14:11:58;;;;;;;4.90;3.60;;;;;;;8.48;59.30;98835.71;226084;1270;22556;-74
2023/12/19 14:17:00;;;;;;;5.80;4.00;;;;;;;8.34;59.91;98826.67;225933;1260;22726;-76
2023/12/19 14:22:02;;;;;;;6.80;4.40;;;;;;;8.22;60.02;98818.71;226043;1266;25226;-75
2023/12/19 14:27:08;;;;;;;8.30;4.80;;;;;;;8.08;60.43;98814.73;226119;1260;22532;-74
2023/12/19 14:32:10;;;;;;;7.20;4.70;;;;;;;7.98;60.36;98806.16;226142;1266;22548;-75
2023/12/19 14:37:12;;;;;;;6.10;4.00;;;;;;;7.87;60.39;98795.05;226138;1253;22531;-76
2023/12/19 14:42:14;;;;;;;8.70;4.40;;;;;;;7.77;61.08;98788.84;225853;1255;25221;-76
2023/12/19 14:47:16;;;;;;;4.80;3.60;;;;;;;7.68;60.64;98786.44;225961;1253;22898;-74
2023/12/19 14:52:19;;;;;;;6.10;3.90;;;;;;;7.64;60.69;98777.08;225999;1257;22571;-75
2023/12/19 14:57:25;;;;;;;7.10;4.30;;;;;;;7.61;60.72;98762.20;226050;1254;22554;-76
2023/12/19 15:02:29;;;;;;;5.50;3.90;;;;;;;7.60;60.60;98767.79;225733;1253;22540;-74
2023/12/19 15:07:31;;;;;;;6.20;4.10;;;;;;;7.58;60.78;98763.72;225841;1256;22543;-76
2023/12/19 15:12:33;;;;;;;6.70;4.50;;;;;;;7.57;60.71;98763.86;225883;1266;25288;-76
2023/12/19 15:17:35;;;;;;;8.70;4.30;;;;;;;7.54;60.75;98746.83;225909;1272;22530;-75
2023/12/19 15:22:37;;;;;;;6.30;4.10;;;;;;;7.52;60.63;98732.17;225978;1259;22582;-73
2023/12/19 15:27:39;;;;;;;4.90;3.30;;;;;;;7.54;60.52;98711.86;226049;1255;22547;-74
2023/12/19 15:32:41;;;;;;;5.70;3.60;;;;;;;7.54;60.11;98706.94;226035;1269;24276;-76
2023/12/19 15:37:43;;;;;;;5.40;3.60;;;;;;;7.55;60.42;98697.86;226232;1270;22560;-73
2023/12/19 15:42:46;;;;;;;5.70;3.30;;;;;;;7.58;60.10;98686.36;226264;1272;22579;-74
2023/12/19 15:47:48;;;;;;;6.30;3.60;;;;;;;7.62;60.50;98688.31;226504;1269;22600;-74
2023/12/19 15:52:50;;;;;;;7.60;3.90;;;;;;;7.66;60.11;98692.91;226566;1270;22546;-75
2023/12/19 15:57:53;;;;;;;8.20;3.70;;;;;;;7.68;60.16;98690.63;226450;1266;22528;-73
2023/12/19 16:02:59;;;;;;;40.70;4.90;;;;;;;7.65;60.46;98687.09;226569;1272;22531;-74
2023/12/19 16:08:03;;;;;;;7.60;3.80;;;;;;;7.60;60.78;98689.44;226481;1270;22602;-73
2023/12/19 16:13:05;;;;;;;7.50;3.80;;;;;;;7.56;60.71;98685.66;226541;1272;25252;-73
2023/12/19 16:18:07;;;;;;;8.10;4.00;;;;;;;7.56;60.84;98695.66;226484;1272;22562;-74
2023/12/19 16:23:09;;;;;;;7.00;4.20;;;;;;;7.53;60.86;98689.52;226458;1273;22543;-73
2023/12/19 16:28:13;;;;;;;7.30;3.90;;;;;;;7.50;61.04;98702.48;226469;1273;24295;-73
2023/12/19 16:33:15;;;;;;;8.60;4.00;;;;;;;7.49;61.30;98706.29;226488;1269;23084;-73
2023/12/19 16:38:17;;;;;;;6.10;4.10;;;;;;;7.47;61.50;98695.64;226530;1269;22544;-74
2023/12/19 16:43:20;;;;;;;7.60;4.30;;;;;;;7.41;61.31;98696.62;226487;1273;22544;-74
2023/12/19 16:48:23;;;;;;;6.20;4.20;;;;;;;7.32;61.61;98688.60;226543;1272;22579;-73
2023/12/19 16:53:25;;;;;;;6.10;4.00;;;;;;;7.25;61.69;98687.70;226519;1272;22559;-74
2023/12/19 16:58:27;;;;;;;6.60;4.70;;;;;;;7.18;61.63;98684.77;226498;1273;22548;-73
2023/12/19 17:03:44;;;;;;;9.20;5.30;;;;;;;7.08;62.27;98669.59;226494;1272;27410;-75
2023/12/19 17:08:51;;;;;;;8.40;5.20;;;;;;;7.00;62.62;98659.52;226526;1263;22554;-75
2023/12/19 17:13:53;;;;;;;9.00;5.20;;;;;;;6.91;62.64;98654.14;226413;1274;22535;-73
2023/12/19 17:18:55;;;;;;;7.50;4.70;;;;;;;6.87;62.75;98654.40;226420;1272;22540;-73
2023/12/19 17:23:57;;;;;;;7.40;5.00;;;;;;;6.87;62.74;98658.30;226439;1273;22565;-72
2023/12/19 17:29:00;;;;;;;8.10;4.90;;;;;;;6.87;62.79;98655.27;226417;1272;24661;-74
2023/12/19 17:34:02;;;;;;;7.50;4.90;;;;;;;6.92;62.86;98653.39;226431;1272;22544;-74
2023/12/19 17:39:07;;;;;;;10.30;6.00;;;;;;;6.97;62.51;98651.44;226441;1266;22536;-72
2023/12/19 17:44:17;;;;;;;10.40;5.60;;;;;;;7.02;62.77;98652.17;226577;1273;24550;-74
2023/12/19 17:49:20;;;;;;;9.50;4.90;;;;;;;7.08;62.45;98644.05;226450;1273;22540;-74
2023/12/19 17:54:22;;;;;;;8.70;5.30;;;;;;;7.11;62.22;98649.31;226478;1272;22561;-73
2023/12/19 17:59:24;;;;;;;8.50;5.30;;;;;;;7.15;62.34;98643.25;226439;1272;22564;-75
2023/12/19 18:04:26;;;;;;;8.40;5.60;;;;;;;7.18;62.40;98639.08;226506;1272;22532;-75
2023/12/19 18:09:29;;;;;;;8.40;5.50;;;;;;;7.21;62.49;98634.95;226398;1272;22578;-75
2023/12/19 18:14:32;;;;;;;9.50;5.50;;;;;;;7.29;62.52;98626.66;226413;1272;22541;-74
2023/12/19 18:19:34;;;;;;;9.50;5.20;;;;;;;7.39;62.21;98637.56;226366;1272;22548;-76
2023/12/19 18:24:36;;;;;;;7.00;4.60;;;;;;;7.49;62.57;98630.67;226412;1274;22622;-74
2023/12/19 18:29:39;;;;;;;7.80;4.70;;;;;;;7.56;62.37;98620.09;226480;1266;22548;-74
2023/12/19 18:34:44;;;;;;;8.20;5.50;;;;;;;7.61;62.53;98627.06;226433;1272;25299;-74
2023/12/19 18:39:48;;;;;;;10.00;5.80;;;;;;;7.60;62.36;98624.54;226390;1274;22536;-75
2023/12/19 18:44:50;;;;;;;9.20;5.80;;;;;;;7.58;62.64;98621.42;226405;1273;23008;-73
2023/12/19 18:49:53;;;;;;;11.30;6.60;;;;;;;7.56;62.82;98609.98;226335;1273;22578;-74
2023/12/19 18:54:58;;;;;;;10.80;7.40;;;;;;;7.53;62.55;98603.27;226449;1272;22567;-73
2023/12/19 19:00:03;;;;;;;10.60;6.10;;;;;;;7.53;63.32;98600.46;226429;1273;22552;-73
2023/12/19 19:05:06;;;;;;;9.80;6.50;;;;;;;7.55;63.18;98602.49;226616;1272;22537;-73
2023/12/19 19:10:12;;;;;;;10.10;5.80;;;;;;;7.58;63.39;98604.40;226347;1274;22747;-74
2023/12/19 19:15:15;;;;;;;11.10;6.60;;;;;;;7.63;63.31;98596.85;226492;1272;24269;-74
2023/12/19 19:20:39;;;;;;;10.60;6.80;;;;;;;7.68;63.40;98598.94;226573;1272;22539;-74
2023/12/19 19:25:44;;;;;;;10.40;6.50;;;;;;;7.70;63.59;98588.86;226567;1272;26036;-74
2023/12/19 19:30:49;;;;;;;10.40;6.40;;;;;;;7.71;63.74;98591.84;226516;1274;23217;-75
2023/12/19 19:35:52;;;;;;;9.90;6.50;;;;;;;7.74;63.62;98587.67;226415;1273;22540;-72
2023/12/19 19:41:00;;;;;;;11.60;5.80;;;;;;;7.75;64.24;98582.66;226544;1272;22547;-74
2023/12/19 19:46:05;;;;;;;12.50;6.80;;;;;;;7.75;63.96;98576.23;226667;1274;22974;-75
2023/12/19 19:51:09;;;;;;;11.80;7.40;;;;;;;7.73;63.93;98566.54;226480;1272;25366;-74
2023/12/19 19:56:12;;;;;;;9.90;6.50;;;;;;;7.73;64.17;98558.91;226482;1272;22610;-72
2023/12/19 20:01:15;;;;;;;12.30;6.80;;;;;;;7.73;64.18;98541.39;226387;1274;22536;-74
2023/12/19 20:06:17;;;;;;;8.90;5.80;;;;;;;7.74;64.15;98530.34;226527;1272;22562;-75
2023/12/19 20:11:19;;;;;;;11.30;6.70;;;;;;;7.76;64.36;98523.95;226479;1272;23290;-74
2023/12/19 20:16:24;;;;;;;10.70;6.20;;;;;;;7.81;64.00;98514.23;226468;1272;22649;-74
2023/12/19 20:21:26;;;;;;;8.30;5.60;;;;;;;7.82;63.88;98512.52;226521;1274;22580;-74
2023/12/19 20:26:28;;;;;;;10.30;5.70;;;;;;;7.81;63.92;98501.38;226467;1273;22556;-74
2023/12/19 20:31:32;;;;;;;10.30;6.00;;;;;;;7.82;63.71;98506.37;226462;1272;22536;-75
2023/12/19 20:36:36;;;;;;;8.70;6.20;;;;;;;7.85;63.67;98498.48;226426;1272;22554;-73
2023/12/19 20:41:38;;;;;;;7.70;6.00;;;;;;;7.85;63.74;98493.85;226389;1272;22570;-74
2023/12/19 20:46:41;;;;;;;10.30;6.20;;;;;;;7.85;63.58;98486.79;226390;1274;22555;-72
2023/12/19 20:51:44;;;;;;;10.40;6.60;;;;;;;7.81;63.59;98476.45;226407;1272;22549;-73
2023/12/19 20:56:47;;;;;;;10.60;6.70;;;;;;;7.78;63.80;98472.40;226418;1273;24256;-72
2023/12/19 21:01:49;;;;;;;9.10;6.30;;;;;;;7.76;63.72;98467.91;226457;1273;22571;-73
2023/12/19 21:06:52;;;;;;;12.10;6.70;;;;;;;7.72;63.94;98467.73;226423;1273;22554;-74
2023/12/19 21:11:54;;;;;;;9.10;6.50;;;;;;;7.66;63.73;98451.94;226400;1272;22568;-75
2023/12/19 21:16:56;;;;;;;12.80;7.40;;;;;;;7.60;63.71;98441.95;226375;1272;22557;-75
2023/12/19 21:22:15;;;;;;;10.80;6.80;;;;;;;7.53;64.10;98433.77;226443;1272;23060;-72
2023/12/19 21:27:17;;;;;;;10.40;7.00;;;;;;;7.47;64.32;98431.34;226426;1273;22570;-75
2023/12/19 21:32:20;;;;;;;9.60;6.50;;;;;;;7.41;63.99;98435.83;226461;1274;22527;-73
2023/12/19 21:37:22;;;;;;;8.50;6.00;;;;;;;7.40;63.69;98430.59;226387;1274;22567;-73
2023/12/19 21:42:25;;;;;;;8.50;6.20;;;;;;;7.40;63.64;98428.13;226285;1274;22540;-73
2023/12/19 21:47:27;;;;;;;10.00;6.30;;;;;;;7.38;64.08;98415.96;226355;1273;22691;-74
2023/12/19 21:52:29;;;;;;;10.40;6.70;;;;;;;7.35;64.17;98396.14;226379;1273;22565;-73
2023/12/19 21:57:31;;;;;;;10.80;6.90;;;;;;;7.29;64.59;98397.98;226449;1274;22540;-74
2023/12/19 22:02:33;;;;;;;10.30;7.00;;;;;;;7.21;64.59;98397.16;226452;1274;22548;-73
2023/12/19 22:07:41;;;;;;;10.90;7.20;;;;;;;7.13;64.79;98403.07;226410;1273;22546;-74
2023/12/19 22:12:45;;;;;;;8.60;6.60;;;;;;;7.08;64.79;98391.52;226431;1273;22556;-74
2023/12/19 22:17:49;;;;;;;11.00;7.00;;;;;;;7.05;64.91;98387.66;226418;1272;22537;-73
2023/12/19 22:22:52;;;;;;;9.30;6.20;;;;;;;7.03;64.68;98389.45;226349;1274;22540;-75
2023/12/19 22:27:54;;;;;;;12.70;7.10;;;;;;;7.02;64.66;98380.65;226382;1273;22561;-74
2023/12/19 22:32:56;;;;;;;10.80;6.70;;;;;;;7.00;65.00;98376.42;226453;1273;22907;-72
2023/12/19 22:38:01;;;;;;;10.50;6.20;;;;;;;6.96;65.44;98377.52;226373;1274;24306;-73
2023/12/19 22:43:05;;;;;;;11.70;7.00;;;;;;;6.88;65.77;98370.34;226474;1273;22570;-74
2023/12/19 22:48:07;;;;;;;11.30;7.50;;;;;;;6.78;66.12;98360.30;226524;1269;22556;-72
2023/12/19 22:53:10;;;;;;;11.00;7.10;;;;;;;6.67;66.74;98355.09;226533;1272;22562;-74
2023/12/19 22:58:13;;;;;;;12.70;8.10;;;;;;;6.54;67.63;98345.16;226491;1274;22543;-74
2023/12/19 23:03:16;;;;;;;11.40;8.30;;;;;;;6.43;68.32;98342.31;226522;1274;22552;-74
2023/12/19 23:08:19;;;;;;;12.90;8.10;;;;;;;6.27;68.68;98336.80;226515;1273;22613;-74
2023/12/19 23:13:21;;;;;;;13.70;9.00;;;;;;;6.16;69.31;98347.74;226480;1273;22639;-74
2023/12/19 23:18:24;;;;;;;13.20;8.80;;;;;;;6.08;69.54;98353.55;226454;1273;23030;-74
2023/12/19 23:23:26;;;;;;;15.10;8.90;;;;;;;5.99;70.02;98339.45;226374;1273;124181;-75
2023/12/19 23:28:28;;;;;;;11.70;7.70;;;;;;;5.88;70.87;98330.91;226484;1269;22555;-74
2023/12/19 23:33:30;;;;;;;12.40;9.00;;;;;;;5.77;71.54;98330.23;226470;1274;24250;-74
2023/12/19 23:38:32;;;;;;;10.10;7.60;;;;;;;5.67;71.93;98331.27;226560;1274;22559;-74